createdAt,value
2018-06-14T00:00:17.691Z,13.81
2018-06-14T00:01:17.755Z,13.77
2018-06-14T00:02:18.009Z,13.80
2018-06-14T00:03:17.277Z,13.74
2018-06-14T00:04:17.537Z,13.78
2018-06-14T00:05:17.794Z,13.76
2018-06-14T00:06:18.053Z,13.78
2018-06-14T00:07:17.318Z,13.77
2018-06-14T00:08:17.575Z,13.77
2018-06-14T00:09:17.832Z,13.76
2018-06-14T00:10:18.108Z,13.73
2018-06-14T00:11:18.205Z,13.73
2018-06-14T00:12:17.465Z,13.71
2018-06-14T00:13:17.777Z,13.74
2018-06-14T00:14:18.035Z,13.76
2018-06-14T00:15:17.321Z,13.77
2018-06-14T00:16:17.596Z,13.76
2018-06-14T00:17:17.859Z,13.74
2018-06-14T00:18:18.160Z,13.71
2018-06-14T00:19:17.417Z,13.74
2018-06-14T00:20:17.695Z,13.76
2018-06-14T00:21:17.752Z,13.71
2018-06-14T00:22:18.010Z,13.71
2018-06-14T00:23:17.260Z,13.73
2018-06-14T00:24:17.520Z,13.73
2018-06-14T00:25:17.773Z,13.73
2018-06-14T00:26:18.020Z,13.70
2018-06-14T00:27:17.284Z,13.68
2018-06-14T00:28:17.537Z,13.67
2018-06-14T00:29:17.792Z,13.68
2018-06-14T00:30:18.330Z,13.64
2018-06-14T00:31:18.142Z,13.65
2018-06-14T00:32:17.389Z,13.64
2018-06-14T00:33:17.659Z,13.65
2018-06-14T00:34:17.927Z,13.63
2018-06-14T00:35:18.188Z,13.65
2018-06-14T00:36:17.446Z,13.70
2018-06-14T00:37:17.717Z,13.67
2018-06-14T00:38:17.973Z,13.65
2018-06-14T00:39:18.233Z,13.64
2018-06-14T00:40:17.507Z,13.64
2018-06-14T00:41:17.541Z,13.64
2018-06-14T00:42:17.808Z,13.63
2018-06-14T00:43:18.068Z,13.63
2018-06-14T00:44:17.330Z,13.64
2018-06-14T00:45:17.592Z,13.60
2018-06-14T00:46:17.873Z,13.58
2018-06-14T00:47:18.132Z,13.58
2018-06-14T00:48:17.410Z,13.60
2018-06-14T00:49:17.668Z,13.60
2018-06-14T00:50:17.937Z,13.57
2018-06-14T00:51:17.996Z,13.58
2018-06-14T00:52:17.268Z,13.57
2018-06-14T00:53:17.529Z,13.54
2018-06-14T00:54:17.788Z,13.54
2018-06-14T00:55:18.058Z,13.54
2018-06-14T00:56:17.312Z,13.54
2018-06-14T00:57:17.577Z,13.55
2018-06-14T00:58:17.830Z,13.55
2018-06-14T00:59:18.092Z,13.54
2018-06-14T01:00:17.356Z,13.53
2018-06-14T01:01:17.418Z,13.53
2018-06-14T01:02:17.753Z,13.54
2018-06-14T01:03:18.003Z,13.53
2018-06-14T01:04:17.267Z,13.53
2018-06-14T01:05:17.537Z,13.51
2018-06-14T01:06:17.801Z,13.53
2018-06-14T01:07:18.076Z,13.53
2018-06-14T01:08:17.346Z,13.53
2018-06-14T01:09:17.621Z,13.54
2018-06-14T01:10:17.895Z,13.53
2018-06-14T01:11:17.963Z,13.54
2018-06-14T01:12:18.225Z,13.55
2018-06-14T01:13:17.486Z,13.57
2018-06-14T01:14:17.746Z,13.57
2018-06-14T01:15:18.010Z,13.55
2018-06-14T01:16:17.274Z,13.58
2018-06-14T01:17:17.538Z,13.55
2018-06-14T01:18:17.801Z,13.57
2018-06-14T01:19:18.378Z,13.57
2018-06-14T01:20:17.639Z,13.54
2018-06-14T01:21:17.709Z,13.57
2018-06-14T01:22:17.972Z,13.54
2018-06-14T01:23:18.226Z,13.57
2018-06-14T01:24:17.478Z,13.55
2018-06-14T01:25:17.742Z,13.55
2018-06-14T01:26:18.009Z,13.51
2018-06-14T01:27:17.266Z,13.50
2018-06-14T01:28:17.525Z,13.51
2018-06-14T01:29:17.789Z,13.51
2018-06-14T01:30:18.057Z,13.50
2018-06-14T01:31:18.115Z,13.50
2018-06-14T01:32:17.373Z,13.51
2018-06-14T01:33:17.638Z,13.50
2018-06-14T01:34:17.916Z,13.50
2018-06-14T01:35:18.171Z,13.53
2018-06-14T01:36:17.434Z,13.51
2018-06-14T01:37:17.697Z,13.53
2018-06-14T01:38:17.954Z,13.55
2018-06-14T01:39:18.483Z,13.55
2018-06-14T01:40:17.751Z,13.53
2018-06-14T01:41:17.801Z,13.50
2018-06-14T01:42:18.061Z,13.50
2018-06-14T01:43:17.324Z,13.50
2018-06-14T01:44:17.577Z,13.49
2018-06-14T01:45:17.841Z,13.46
2018-06-14T01:46:18.101Z,13.47
2018-06-14T01:47:17.365Z,13.47
2018-06-14T01:48:17.634Z,13.46
2018-06-14T01:49:17.890Z,13.46
2018-06-14T01:50:18.463Z,13.44
2018-06-14T01:51:18.213Z,13.44
2018-06-14T01:52:17.469Z,13.47
2018-06-14T01:53:17.723Z,13.44
2018-06-14T01:54:17.987Z,13.46
2018-06-14T01:55:17.515Z,13.46
2018-06-14T01:56:17.784Z,13.47
2018-06-14T01:57:18.041Z,13.49
2018-06-14T01:58:17.302Z,13.46
2018-06-14T01:59:17.563Z,13.46
2018-06-14T02:00:17.840Z,13.47
2018-06-14T02:01:17.910Z,13.47
2018-06-14T02:02:18.175Z,13.46
2018-06-14T02:03:17.433Z,13.43
2018-06-14T02:04:17.702Z,13.47
2018-06-14T02:05:17.972Z,13.47
2018-06-14T02:06:18.256Z,13.46
2018-06-14T02:07:17.511Z,13.47
2018-06-14T02:08:17.775Z,13.46
2018-06-14T02:09:18.038Z,13.46
2018-06-14T02:10:17.317Z,13.44
2018-06-14T02:11:17.360Z,13.43
2018-06-14T02:12:17.616Z,13.43
2018-06-14T02:13:17.879Z,13.46
2018-06-14T02:14:18.151Z,13.43
2018-06-14T02:15:17.421Z,13.43
2018-06-14T02:16:17.678Z,13.43
2018-06-14T02:17:17.944Z,13.42
2018-06-14T02:18:18.216Z,13.42
2018-06-14T02:19:17.473Z,13.40
2018-06-14T02:20:17.742Z,13.43
2018-06-14T02:21:17.800Z,13.40
2018-06-14T02:22:18.079Z,13.42
2018-06-14T02:23:17.337Z,13.40
2018-06-14T02:24:17.859Z,13.44
2018-06-14T02:25:18.125Z,13.43
2018-06-14T02:26:17.385Z,13.44
2018-06-14T02:27:17.652Z,13.40
2018-06-14T02:28:17.912Z,13.39
2018-06-14T02:29:18.180Z,13.39
2018-06-14T02:30:17.445Z,13.42
2018-06-14T02:31:17.533Z,13.43
2018-06-14T02:32:17.802Z,13.42
2018-06-14T02:33:18.069Z,13.43
2018-06-14T02:34:17.350Z,13.43
2018-06-14T02:35:17.628Z,13.43
2018-06-14T02:36:17.905Z,13.40
2018-06-14T02:37:18.168Z,13.39
2018-06-14T02:38:17.725Z,13.43
2018-06-14T02:39:17.998Z,13.42
2018-06-14T02:40:18.268Z,13.42
2018-06-14T02:41:17.345Z,13.42
2018-06-14T02:42:17.604Z,13.39
2018-06-14T02:43:17.948Z,13.40
2018-06-14T02:44:18.220Z,13.37
2018-06-14T02:45:17.487Z,13.37
2018-06-14T02:46:17.753Z,13.37
2018-06-14T02:47:18.012Z,13.39
2018-06-14T02:48:17.288Z,13.39
2018-06-14T02:49:17.554Z,13.37
2018-06-14T02:50:17.830Z,13.33
2018-06-14T02:51:17.885Z,13.33
2018-06-14T02:52:18.156Z,13.36
2018-06-14T02:53:17.424Z,13.32
2018-06-14T02:54:17.990Z,13.32
2018-06-14T02:55:18.256Z,13.32
2018-06-14T02:56:17.535Z,13.33
2018-06-14T02:57:17.799Z,13.27
2018-06-14T02:58:18.334Z,13.32
2018-06-14T02:59:17.617Z,13.32
2018-06-14T03:00:17.879Z,13.32
2018-06-14T03:01:17.955Z,13.30
2018-06-14T03:02:18.216Z,13.27
2018-06-14T03:03:17.483Z,13.32
2018-06-14T03:04:17.759Z,13.30
2018-06-14T03:05:18.042Z,13.33
2018-06-14T03:06:17.317Z,13.33
2018-06-14T03:07:17.582Z,13.33
2018-06-14T03:08:17.842Z,13.34
2018-06-14T03:09:18.430Z,13.36
2018-06-14T03:10:17.695Z,13.32
2018-06-14T03:11:17.757Z,13.36
2018-06-14T03:12:18.026Z,13.34
2018-06-14T03:13:17.287Z,13.36
2018-06-14T03:14:17.561Z,13.36
2018-06-14T03:15:17.828Z,13.36
2018-06-14T03:16:18.095Z,13.36
2018-06-14T03:17:17.347Z,13.36
2018-06-14T03:18:17.608Z,13.36
2018-06-14T03:19:17.880Z,13.36
2018-06-14T03:20:18.145Z,13.33
2018-06-14T03:21:18.221Z,13.34
2018-06-14T03:22:17.484Z,13.36
2018-06-14T03:23:17.757Z,13.36
2018-06-14T03:24:18.025Z,13.34
2018-06-14T03:25:17.801Z,13.33
2018-06-14T03:26:18.058Z,13.36
2018-06-14T03:27:17.313Z,13.36
2018-06-14T03:28:17.610Z,13.34
2018-06-14T03:29:17.869Z,13.36
2018-06-14T03:30:18.153Z,13.42
2018-06-14T03:31:18.206Z,13.46
2018-06-14T03:32:17.461Z,13.43
2018-06-14T03:33:17.725Z,13.39
2018-06-14T03:34:17.985Z,13.39
2018-06-14T03:35:18.260Z,13.42
2018-06-14T03:36:17.517Z,13.40
2018-06-14T03:37:17.770Z,13.42
2018-06-14T03:38:18.035Z,13.43
2018-06-14T03:39:17.291Z,13.43
2018-06-14T03:40:17.551Z,13.43
2018-06-14T03:41:17.615Z,13.40
2018-06-14T03:42:17.873Z,13.40
2018-06-14T03:43:18.140Z,13.36
2018-06-14T03:44:17.416Z,13.39
2018-06-14T03:45:17.677Z,13.39
2018-06-14T03:46:17.958Z,13.39
2018-06-14T03:47:18.221Z,13.39
2018-06-14T03:48:17.484Z,13.37
2018-06-14T03:49:17.743Z,13.42
2018-06-14T03:50:18.015Z,13.39
2018-06-14T03:51:18.070Z,13.37
2018-06-14T03:52:17.325Z,13.39
2018-06-14T03:53:17.594Z,13.40
2018-06-14T03:54:17.869Z,13.40
2018-06-14T03:55:18.134Z,13.42
2018-06-14T03:56:17.393Z,13.42
2018-06-14T03:57:17.679Z,13.39
2018-06-14T03:58:17.969Z,13.40
2018-06-14T03:59:17.282Z,13.42
2018-06-14T04:00:17.553Z,13.40
2018-06-14T04:01:17.617Z,13.39
2018-06-14T04:02:17.880Z,13.40
2018-06-14T04:03:18.138Z,13.44
2018-06-14T04:04:17.402Z,13.46
2018-06-14T04:05:17.668Z,13.44
2018-06-14T04:06:17.924Z,13.43
2018-06-14T04:07:18.193Z,13.42
2018-06-14T04:08:17.451Z,13.40
2018-06-14T04:09:17.721Z,13.40
2018-06-14T04:10:18.013Z,13.43
2018-06-14T04:11:18.040Z,13.44
2018-06-14T04:12:17.301Z,13.47
2018-06-14T04:13:17.585Z,13.49
2018-06-14T04:14:17.842Z,13.51
2018-06-14T04:15:18.118Z,13.53
2018-06-14T04:16:17.384Z,13.53
2018-06-14T04:17:17.652Z,13.53
2018-06-14T04:18:17.916Z,13.53
2018-06-14T04:20:18.103Z,13.57
2018-06-14T04:21:18.177Z,13.58
2018-06-14T04:22:17.435Z,13.57
2018-06-14T04:23:17.690Z,13.55
2018-06-14T04:24:17.956Z,13.55
2018-06-14T04:25:18.276Z,13.53
2018-06-14T04:26:17.545Z,13.57
2018-06-14T04:27:17.803Z,13.58
2018-06-14T04:28:18.073Z,13.58
2018-06-14T04:29:17.332Z,13.58
2018-06-14T04:30:17.603Z,13.60
2018-06-14T04:31:17.655Z,13.55
2018-06-14T04:32:17.915Z,13.60
2018-06-14T04:33:18.173Z,13.58
2018-06-14T04:34:17.435Z,13.60
2018-06-14T04:35:17.690Z,13.57
2018-06-14T04:36:17.948Z,13.57
2018-06-14T04:37:18.208Z,13.64
2018-06-14T04:38:17.470Z,13.64
2018-06-14T04:39:17.765Z,13.64
2018-06-14T04:40:18.090Z,13.65
2018-06-14T04:41:18.128Z,13.65
2018-06-14T04:42:17.402Z,13.65
2018-06-14T04:43:17.663Z,13.67
2018-06-14T04:44:17.938Z,13.70
2018-06-14T04:45:18.200Z,13.71
2018-06-14T04:46:17.463Z,13.74
2018-06-14T04:47:17.725Z,13.71
2018-06-14T04:48:17.988Z,13.71
2018-06-14T04:49:18.245Z,13.71
2018-06-14T04:50:17.519Z,13.77
2018-06-14T04:51:17.575Z,13.76
2018-06-14T04:52:17.831Z,13.77
2018-06-14T04:53:18.090Z,13.80
2018-06-14T04:54:17.350Z,13.80
2018-06-14T04:55:17.606Z,13.80
2018-06-14T04:56:17.885Z,13.82
2018-06-14T04:57:18.145Z,13.84
2018-06-14T04:58:17.414Z,13.82
2018-06-14T04:59:17.672Z,13.80
2018-06-14T05:00:17.980Z,13.81
2018-06-14T05:01:18.028Z,13.82
2018-06-14T05:02:17.295Z,13.87
2018-06-14T05:03:17.607Z,13.90
2018-06-14T05:04:17.876Z,13.90
2018-06-14T05:05:18.144Z,13.91
2018-06-14T05:06:17.407Z,13.94
2018-06-14T05:07:17.672Z,13.95
2018-06-14T05:08:17.933Z,13.94
2018-06-14T05:09:18.196Z,13.90
2018-06-14T05:10:17.464Z,13.90
2018-06-14T05:11:17.533Z,13.88
2018-06-14T05:12:17.796Z,13.90
2018-06-14T05:13:18.050Z,13.91
2018-06-14T05:14:17.311Z,13.84
2018-06-14T05:15:17.569Z,13.84
2018-06-14T05:16:17.841Z,13.88
2018-06-14T05:17:18.401Z,13.85
2018-06-14T05:18:17.666Z,13.88
2018-06-14T05:19:17.926Z,13.88
2018-06-14T05:20:18.230Z,13.85
2018-06-14T05:21:18.251Z,13.87
2018-06-14T05:22:17.515Z,13.90
2018-06-14T05:23:17.791Z,13.92
2018-06-14T05:24:18.049Z,14.04
2018-06-14T05:25:17.305Z,14.01
2018-06-14T05:26:17.563Z,14.05
2018-06-14T05:27:17.818Z,14.12
2018-06-14T05:28:18.398Z,14.07
2018-06-14T05:29:17.664Z,14.12
2018-06-14T05:30:17.933Z,14.09
2018-06-14T05:31:17.980Z,14.05
2018-06-14T05:32:18.263Z,14.15
2018-06-14T05:33:17.520Z,14.04
2018-06-14T05:34:17.788Z,14.13
2018-06-14T05:35:18.061Z,14.15
2018-06-14T05:36:17.337Z,14.19
2018-06-14T05:37:17.606Z,14.25
2018-06-14T05:38:17.947Z,14.28
2018-06-14T05:39:18.238Z,14.32
2018-06-14T05:40:17.504Z,14.32
2018-06-14T05:41:17.565Z,14.32
2018-06-14T05:42:17.852Z,14.30
2018-06-14T05:43:18.498Z,14.30
2018-06-14T05:44:17.759Z,14.41
2018-06-14T05:45:18.016Z,14.49
2018-06-14T05:46:17.273Z,14.49
2018-06-14T05:47:17.559Z,14.53
2018-06-14T05:48:17.823Z,14.59
2018-06-14T05:49:18.090Z,14.59
2018-06-14T05:50:17.364Z,14.57
2018-06-14T05:51:17.412Z,14.56
2018-06-14T05:52:17.691Z,14.57
2018-06-14T05:53:17.963Z,14.66
2018-06-14T05:54:18.237Z,14.44
2018-06-14T05:55:17.510Z,14.49
2018-06-14T05:56:17.765Z,14.60
2018-06-14T05:57:18.022Z,14.60
2018-06-14T05:58:17.292Z,14.55
2018-06-14T05:59:17.553Z,14.36
2018-06-14T06:00:17.814Z,14.57
2018-06-14T06:01:17.752Z,14.66
2018-06-14T06:02:18.020Z,14.63
2018-06-14T06:03:17.300Z,14.59
2018-06-14T06:04:17.563Z,14.63
2018-06-14T06:05:17.825Z,14.60
2018-06-14T06:06:18.101Z,14.74
2018-06-14T06:07:17.360Z,14.84
2018-06-14T06:08:17.618Z,14.87
2018-06-14T06:09:17.884Z,14.97
2018-06-14T06:10:18.155Z,14.92
2018-06-14T06:11:18.196Z,14.78
2018-06-14T06:12:17.461Z,14.68
2018-06-14T06:13:17.719Z,14.78
2018-06-14T06:14:17.989Z,14.90
2018-06-14T06:15:17.427Z,15.04
2018-06-14T06:16:17.695Z,15.06
2018-06-14T06:17:17.960Z,15.01
2018-06-14T06:18:18.236Z,15.02
2018-06-14T06:19:17.506Z,14.91
2018-06-14T06:20:17.778Z,15.05
2018-06-14T06:21:17.845Z,15.06
2018-06-14T06:22:18.103Z,15.15
2018-06-14T06:23:17.371Z,15.11
2018-06-14T06:24:17.640Z,15.21
2018-06-14T06:25:17.910Z,15.14
2018-06-14T06:26:18.195Z,15.18
2018-06-14T06:27:17.582Z,15.47
2018-06-14T06:28:17.851Z,15.66
2018-06-14T06:29:18.117Z,15.73
2018-06-14T06:30:17.386Z,15.50
2018-06-14T06:31:17.428Z,15.42
2018-06-14T06:32:17.695Z,15.53
2018-06-14T06:33:18.054Z,15.50
2018-06-14T06:34:17.512Z,15.18
2018-06-14T06:35:17.778Z,15.35
2018-06-14T06:36:18.041Z,15.56
2018-06-14T06:37:17.298Z,15.71
2018-06-14T06:38:17.559Z,15.69
2018-06-14T06:39:17.816Z,15.49
2018-06-14T06:40:18.079Z,15.36
2018-06-14T06:41:18.138Z,15.63
2018-06-14T06:42:17.396Z,15.52
2018-06-14T06:43:17.656Z,15.49
2018-06-14T06:44:17.928Z,15.29
2018-06-14T06:45:18.192Z,15.23
2018-06-14T06:46:17.464Z,15.26
2018-06-14T06:47:17.731Z,15.25
2018-06-14T06:48:18.002Z,15.29
2018-06-14T06:49:18.286Z,15.33
2018-06-14T06:50:17.557Z,15.45
2018-06-14T06:51:17.621Z,15.54
2018-06-14T06:52:17.895Z,15.60
2018-06-14T06:53:18.187Z,15.95
2018-06-14T06:54:17.547Z,16.07
2018-06-14T06:55:17.817Z,15.95
2018-06-14T06:56:18.080Z,15.87
2018-06-14T06:57:17.390Z,16.04
2018-06-14T06:58:17.651Z,16.15
2018-06-14T06:59:17.910Z,16.29
2018-06-14T07:00:18.214Z,16.29
2018-06-14T07:01:18.246Z,16.40
2018-06-14T07:02:17.509Z,16.46
2018-06-14T07:03:17.779Z,16.29
2018-06-14T07:04:18.036Z,16.22
2018-06-14T07:05:17.324Z,16.08
2018-06-14T07:06:17.652Z,15.81
2018-06-14T07:07:18.133Z,16.08
2018-06-14T07:08:17.400Z,16.29
2018-06-14T07:09:17.669Z,16.32
2018-06-14T07:10:17.926Z,16.38
2018-06-14T07:11:17.980Z,15.97
2018-06-14T07:12:18.236Z,15.77
2018-06-14T07:13:17.487Z,15.78
2018-06-14T07:14:17.756Z,16.04
2018-06-14T07:15:18.017Z,16.17
2018-06-14T07:16:17.487Z,16.31
2018-06-14T07:17:17.754Z,16.50
2018-06-14T07:18:18.015Z,16.74
2018-06-14T07:19:17.277Z,16.64
2018-06-14T07:20:17.552Z,16.71
2018-06-14T07:21:17.620Z,16.81
2018-06-14T07:22:17.883Z,16.62
2018-06-14T07:23:18.155Z,16.70
2018-06-14T07:24:17.420Z,16.56
2018-06-14T07:25:17.680Z,16.55
2018-06-14T07:26:17.945Z,16.62
2018-06-14T07:27:18.206Z,16.59
2018-06-14T07:28:17.460Z,16.66
2018-06-14T07:29:17.723Z,16.57
2018-06-14T07:30:17.999Z,16.62
2018-06-14T07:31:18.044Z,16.39
2018-06-14T07:32:17.313Z,16.33
2018-06-14T07:33:17.568Z,16.71
2018-06-14T07:34:17.830Z,16.78
2018-06-14T07:35:18.102Z,16.71
2018-06-14T07:36:17.410Z,16.59
2018-06-14T07:37:17.698Z,16.62
2018-06-14T07:38:17.961Z,16.55
2018-06-14T07:39:18.222Z,16.55
2018-06-14T07:40:17.492Z,16.38
2018-06-14T07:41:17.863Z,16.22
2018-06-14T07:42:18.126Z,16.31
2018-06-14T07:43:17.389Z,16.50
2018-06-14T07:44:17.654Z,16.49
2018-06-14T07:45:17.922Z,16.45
2018-06-14T07:46:18.190Z,16.22
2018-06-14T07:47:17.446Z,16.05
2018-06-14T07:48:17.707Z,15.78
2018-06-14T07:49:17.971Z,15.81
2018-06-14T07:50:18.241Z,15.70
2018-06-14T07:51:17.301Z,15.91
2018-06-14T07:52:17.565Z,16.05
2018-06-14T07:53:17.849Z,16.01
2018-06-14T07:54:18.103Z,16.17
2018-06-14T07:55:17.368Z,15.97
2018-06-14T07:56:17.624Z,16.15
2018-06-14T07:57:17.883Z,16.14
2018-06-14T07:58:18.146Z,16.12
2018-06-14T07:59:17.413Z,16.11
2018-06-14T08:00:17.680Z,16.00
2018-06-14T08:01:17.742Z,16.07
2018-06-14T08:02:18.006Z,16.08
2018-06-14T08:03:18.259Z,16.02
2018-06-14T08:04:17.515Z,16.04
2018-06-14T08:05:17.793Z,16.18
2018-06-14T08:06:18.066Z,16.21
2018-06-14T08:07:17.329Z,16.08
2018-06-14T08:08:17.598Z,16.01
2018-06-14T08:09:17.880Z,15.95
2018-06-14T08:10:18.155Z,15.97
2018-06-14T08:11:18.193Z,16.01
2018-06-14T08:12:17.493Z,16.01
2018-06-14T08:13:17.894Z,15.85
2018-06-14T08:14:18.159Z,16.02
2018-06-14T08:15:17.420Z,16.07
2018-06-14T08:16:17.684Z,16.21
2018-06-14T08:17:17.944Z,16.09
2018-06-14T08:18:18.210Z,16.18
2018-06-14T08:19:17.476Z,16.27
2018-06-14T08:20:17.754Z,16.25
2018-06-14T08:21:17.800Z,16.25
2018-06-14T08:22:18.068Z,16.27
2018-06-14T08:23:17.321Z,16.25
2018-06-14T08:24:17.640Z,16.35
2018-06-14T08:25:17.933Z,16.40
2018-06-14T08:26:18.189Z,16.49
2018-06-14T08:27:17.453Z,16.57
2018-06-14T08:28:17.721Z,16.08
2018-06-14T08:29:17.982Z,15.97
2018-06-14T08:30:18.266Z,15.90
2018-06-14T08:31:17.304Z,15.76
2018-06-14T08:32:17.566Z,15.80
2018-06-14T08:33:17.825Z,15.98
2018-06-14T08:34:18.086Z,15.95
2018-06-14T08:35:17.353Z,16.04
2018-06-14T08:36:17.622Z,16.19
2018-06-14T08:37:17.878Z,16.22
2018-06-14T08:38:18.148Z,15.97
2018-06-14T08:39:17.408Z,16.02
2018-06-14T08:40:17.683Z,16.24
2018-06-14T08:41:17.759Z,16.27
2018-06-14T08:42:18.016Z,16.29
2018-06-14T08:43:17.274Z,16.31
2018-06-14T08:44:17.539Z,16.33
2018-06-14T08:45:17.804Z,16.45
2018-06-14T08:46:18.070Z,16.53
2018-06-14T08:47:17.377Z,16.57
2018-06-14T08:48:17.653Z,16.47
2018-06-14T08:49:17.916Z,16.47
2018-06-14T08:50:18.180Z,16.49
2018-06-14T08:51:17.288Z,16.53
2018-06-14T08:52:17.555Z,16.57
2018-06-14T08:53:17.817Z,16.63
2018-06-14T08:54:18.082Z,16.53
2018-06-14T08:55:17.346Z,16.52
2018-06-14T08:56:17.604Z,16.86
2018-06-14T08:57:17.898Z,16.91
2018-06-14T08:58:18.164Z,16.60
2018-06-14T08:59:17.423Z,16.66
2018-06-14T09:00:17.688Z,16.76
2018-06-14T09:01:17.751Z,16.95
2018-06-14T09:02:18.051Z,17.11
2018-06-14T09:03:17.361Z,17.10
2018-06-14T09:04:17.622Z,17.07
2018-06-14T09:05:17.904Z,17.18
2018-06-14T09:06:18.158Z,17.04
2018-06-14T09:07:17.419Z,17.10
2018-06-14T09:08:17.686Z,17.24
2018-06-14T09:09:17.943Z,16.71
2018-06-14T09:10:18.206Z,16.78
2018-06-14T09:11:18.266Z,16.83
2018-06-14T09:12:17.532Z,16.73
2018-06-14T09:13:18.059Z,16.77
2018-06-14T09:14:17.362Z,17.10
2018-06-14T09:15:17.703Z,17.15
2018-06-14T09:16:17.968Z,17.35
2018-06-14T09:17:18.236Z,17.42
2018-06-14T09:18:17.495Z,17.38
2018-06-14T09:19:17.755Z,17.39
2018-06-14T09:20:18.024Z,17.39
2018-06-14T09:21:18.078Z,17.39
2018-06-14T09:22:17.336Z,17.21
2018-06-14T09:23:17.599Z,17.39
2018-06-14T09:24:17.860Z,17.43
2018-06-14T09:25:18.129Z,17.22
2018-06-14T09:26:17.395Z,17.13
2018-06-14T09:27:17.667Z,17.31
2018-06-14T09:28:17.923Z,17.43
2018-06-14T09:29:18.192Z,17.83
2018-06-14T09:30:17.459Z,17.68
2018-06-14T09:31:17.536Z,17.57
2018-06-14T09:32:17.796Z,17.74
2018-06-14T09:33:18.066Z,17.73
2018-06-14T09:34:17.327Z,17.60
2018-06-14T09:35:17.580Z,17.73
2018-06-14T09:36:17.845Z,17.73
2018-06-14T09:37:18.102Z,17.94
2018-06-14T09:38:17.367Z,17.59
2018-06-14T09:39:17.630Z,17.76
2018-06-14T09:40:17.899Z,17.93
2018-06-14T09:41:17.959Z,17.94
2018-06-14T09:42:18.216Z,18.15
2018-06-14T09:43:17.479Z,17.83
2018-06-14T09:44:17.754Z,17.80
2018-06-14T09:45:18.041Z,17.84
2018-06-14T09:46:17.304Z,17.79
2018-06-14T09:47:17.574Z,17.90
2018-06-14T09:48:17.841Z,18.03
2018-06-14T09:49:18.112Z,18.03
2018-06-14T09:50:17.444Z,18.07
2018-06-14T09:51:17.459Z,18.18
2018-06-14T09:52:17.731Z,18.07
2018-06-14T09:53:17.988Z,18.33
2018-06-14T09:54:18.265Z,18.42
2018-06-14T09:55:17.532Z,18.32
2018-06-14T09:56:17.793Z,18.22
2018-06-14T09:57:18.056Z,17.70
2018-06-14T09:58:17.315Z,17.49
2018-06-14T09:59:17.903Z,18.01
2018-06-14T10:00:18.195Z,18.24
2018-06-14T10:01:18.231Z,18.36
2018-06-14T10:02:17.489Z,18.24
2018-06-14T10:03:17.751Z,18.32
2018-06-14T10:04:18.007Z,18.46
2018-06-14T10:05:18.273Z,18.59
2018-06-14T10:06:17.532Z,18.33
2018-06-14T10:07:17.794Z,18.19
2018-06-14T10:08:18.056Z,18.39
2018-06-14T10:09:17.320Z,18.19
2018-06-14T10:10:17.869Z,17.91
2018-06-14T10:11:17.625Z,17.81
2018-06-14T10:12:17.886Z,17.76
2018-06-14T10:13:18.140Z,17.79
2018-06-14T10:14:17.398Z,17.79
2018-06-14T10:15:17.676Z,17.94
2018-06-14T10:16:17.945Z,18.22
2018-06-14T10:17:18.211Z,18.31
2018-06-14T10:18:17.451Z,18.10
2018-06-14T10:19:17.715Z,17.97
2018-06-14T10:20:18.014Z,17.68
2018-06-14T10:21:18.050Z,17.68
2018-06-14T10:22:17.315Z,17.72
2018-06-14T10:23:17.573Z,17.94
2018-06-14T10:24:17.839Z,17.74
2018-06-14T10:25:18.385Z,17.65
2018-06-14T10:26:17.641Z,17.69
2018-06-14T10:27:17.897Z,17.31
2018-06-14T10:28:18.168Z,17.13
2018-06-14T10:29:17.437Z,17.13
2018-06-14T10:30:17.747Z,17.24
2018-06-14T10:31:17.805Z,17.41
2018-06-14T10:32:18.370Z,17.11
2018-06-14T10:33:17.634Z,17.18
2018-06-14T10:34:17.901Z,17.56
2018-06-14T10:35:18.457Z,17.66
2018-06-14T10:36:17.725Z,17.86
2018-06-14T10:37:18.029Z,18.05
2018-06-14T10:38:17.334Z,18.15
2018-06-14T10:39:17.586Z,17.79
2018-06-14T10:40:17.852Z,17.54
2018-06-14T10:41:17.933Z,18.14
2018-06-14T10:42:18.194Z,18.00
2018-06-14T10:43:17.452Z,18.28
2018-06-14T10:44:17.713Z,17.96
2018-06-14T10:45:18.031Z,18.00
2018-06-14T10:46:17.300Z,18.31
2018-06-14T10:47:17.570Z,18.31
2018-06-14T10:48:18.114Z,18.82
2018-06-14T10:49:17.370Z,18.76
2018-06-14T10:50:17.633Z,18.77
2018-06-14T10:51:17.698Z,18.63
2018-06-14T10:52:17.960Z,18.52
2018-06-14T10:53:18.263Z,18.29
2018-06-14T10:54:17.530Z,18.35
2018-06-14T10:55:17.794Z,18.25
2018-06-14T10:56:18.071Z,18.32
2018-06-14T10:57:17.341Z,18.12
2018-06-14T10:58:17.597Z,18.31
2018-06-14T10:59:17.865Z,18.25
2018-06-14T11:00:18.133Z,18.35
2018-06-14T11:01:18.181Z,18.31
2018-06-14T11:02:17.448Z,18.32
2018-06-14T11:03:17.712Z,18.10
2018-06-14T11:04:17.991Z,18.21
2018-06-14T11:05:18.251Z,18.21
2018-06-14T11:06:17.513Z,17.81
2018-06-14T11:07:17.775Z,18.10
2018-06-14T11:08:18.033Z,18.12
2018-06-14T11:09:17.293Z,17.93
2018-06-14T11:10:17.565Z,18.01
2018-06-14T11:11:17.595Z,18.01
2018-06-14T11:12:17.861Z,18.07
2018-06-14T11:13:18.206Z,18.14
2018-06-14T11:14:17.532Z,18.24
2018-06-14T11:15:17.787Z,18.29
2018-06-14T11:16:18.052Z,18.22
2018-06-14T11:17:17.324Z,18.27
2018-06-14T11:18:17.589Z,18.45
2018-06-14T11:19:17.860Z,18.63
2018-06-14T11:20:18.156Z,18.11
2018-06-14T11:21:18.193Z,17.94
2018-06-14T11:22:17.451Z,18.18
2018-06-14T11:23:17.713Z,18.56
2018-06-14T11:24:17.979Z,19.21
2018-06-14T11:25:18.240Z,19.14
2018-06-14T11:26:17.544Z,19.38
2018-06-14T11:27:17.809Z,19.49
2018-06-14T11:28:18.071Z,19.60
2018-06-14T11:29:17.338Z,19.17
2018-06-14T11:30:17.653Z,19.24
2018-06-14T11:31:17.653Z,19.44
2018-06-14T11:32:17.914Z,19.35
2018-06-14T11:33:18.171Z,19.22
2018-06-14T11:34:17.437Z,18.87
2018-06-14T11:35:17.704Z,18.82
2018-06-14T11:36:17.979Z,19.13
2018-06-14T11:37:18.235Z,19.10
2018-06-14T11:38:17.484Z,18.86
2018-06-14T11:39:17.734Z,18.75
2018-06-14T11:40:18.004Z,18.98
2018-06-14T11:41:18.049Z,19.17
2018-06-14T11:42:17.313Z,18.90
2018-06-14T11:43:17.574Z,18.66
2018-06-14T11:44:17.834Z,19.04
2018-06-14T11:45:18.105Z,19.25
2018-06-14T11:46:17.426Z,19.37
2018-06-14T11:47:17.690Z,19.24
2018-06-14T11:48:18.033Z,19.49
2018-06-14T11:49:17.355Z,19.32
2018-06-14T11:50:17.635Z,18.59
2018-06-14T11:51:17.801Z,18.44
2018-06-14T11:52:18.088Z,18.39
2018-06-14T11:53:17.340Z,18.76
2018-06-14T11:54:17.647Z,19.22
2018-06-14T11:55:18.011Z,19.44
2018-06-14T11:56:18.271Z,19.49
2018-06-14T11:57:17.547Z,19.53
2018-06-14T11:58:17.806Z,19.55
2018-06-14T11:59:18.071Z,19.56
2018-06-14T12:00:17.330Z,19.28
2018-06-14T12:01:17.449Z,19.20
2018-06-14T12:02:17.758Z,19.14
2018-06-14T12:03:18.016Z,19.14
2018-06-14T12:04:18.290Z,18.98
2018-06-14T12:05:17.618Z,19.10
2018-06-14T12:06:17.885Z,19.22
2018-06-14T12:07:18.152Z,19.35
2018-06-14T12:08:17.428Z,19.62
2018-06-14T12:09:17.724Z,19.53
2018-06-14T12:10:17.993Z,19.65
2018-06-14T12:11:18.054Z,19.86
2018-06-14T12:12:17.317Z,19.63
2018-06-14T12:13:17.581Z,19.05
2018-06-14T12:14:17.838Z,19.39
2018-06-14T12:15:18.119Z,19.87
2018-06-14T12:16:17.383Z,19.93
2018-06-14T12:17:17.642Z,20.08
2018-06-14T12:18:17.904Z,20.04
2018-06-14T12:19:18.176Z,19.96
2018-06-14T12:20:17.450Z,19.96
2018-06-14T12:21:17.596Z,19.58
2018-06-14T12:22:17.911Z,19.70
2018-06-14T12:23:18.188Z,19.37
2018-06-14T12:24:17.471Z,19.30
2018-06-14T12:25:17.743Z,19.32
2018-06-14T12:26:18.006Z,19.04
2018-06-14T12:27:18.270Z,18.93
2018-06-14T12:28:17.528Z,18.79
2018-06-14T12:29:17.781Z,18.82
2018-06-14T12:30:18.052Z,19.00
2018-06-14T12:31:18.113Z,18.72
2018-06-14T12:32:17.369Z,18.75
2018-06-14T12:33:17.635Z,18.69
2018-06-14T12:34:17.888Z,18.65
2018-06-14T12:35:18.143Z,18.75
2018-06-14T12:36:17.400Z,18.93
2018-06-14T12:37:17.654Z,18.54
2018-06-14T12:38:17.922Z,18.86
2018-06-14T12:39:18.198Z,18.84
2018-06-14T12:40:17.476Z,18.95
2018-06-14T12:41:17.537Z,18.93
2018-06-14T12:42:17.800Z,18.80
2018-06-14T12:43:18.070Z,18.90
2018-06-14T12:44:17.366Z,19.28
2018-06-14T12:45:17.810Z,18.94
2018-06-14T12:46:18.073Z,18.76
2018-06-14T12:47:17.338Z,19.03
2018-06-14T12:48:17.596Z,18.94
2018-06-14T12:49:17.854Z,18.94
2018-06-14T12:50:18.418Z,18.98
2018-06-14T12:51:18.180Z,18.88
2018-06-14T12:52:17.500Z,19.03
2018-06-14T12:53:17.826Z,19.01